createdAt,value
2019-01-15T00:02:20.589Z,1.50
2019-01-15T00:04:46.961Z,1.50
2019-01-15T00:07:13.241Z,1.50
2019-01-15T00:09:39.519Z,1.50
2019-01-15T00:12:07.911Z,1.50
2019-01-15T00:14:33.984Z,1.40
2019-01-15T00:17:00.248Z,1.60
2019-01-15T00:19:26.647Z,1.60
2019-01-15T00:21:52.974Z,1.60
2019-01-15T00:24:19.195Z,1.60
2019-01-15T00:26:45.608Z,1.60
2019-01-15T00:29:11.983Z,1.50
2019-01-15T00:31:38.435Z,1.50
2019-01-15T00:34:04.829Z,1.70
2019-01-15T00:36:31.090Z,1.70
2019-01-15T00:38:57.459Z,1.70
2019-01-15T00:41:23.725Z,1.60
2019-01-15T00:43:49.979Z,1.60
2019-01-15T00:46:16.304Z,1.70
2019-01-15T00:48:42.547Z,1.70
2019-01-15T00:51:09.023Z,1.60
2019-01-15T00:53:35.325Z,1.60
2019-01-15T00:56:01.704Z,1.70
2019-01-15T00:58:27.987Z,1.60
2019-01-15T01:00:54.370Z,1.70
2019-01-15T01:03:20.726Z,1.70
2019-01-15T01:05:47.109Z,1.60
2019-01-15T01:08:13.571Z,1.60
2019-01-15T01:10:40.080Z,1.70
2019-01-15T01:13:06.451Z,1.60
2019-01-15T01:15:32.916Z,1.70
2019-01-15T01:17:59.308Z,1.70
2019-01-15T01:20:25.593Z,1.80
2019-01-15T01:22:52.065Z,1.70
2019-01-15T01:25:18.434Z,1.80
2019-01-15T01:27:44.832Z,1.70
2019-01-15T01:30:17.596Z,1.70
2019-01-15T01:32:43.844Z,1.70
2019-01-15T01:35:10.207Z,1.60
2019-01-15T01:37:36.595Z,1.50
2019-01-15T01:40:06.720Z,1.40
2019-01-15T01:42:33.076Z,1.40
2019-01-15T01:44:59.469Z,1.40
2019-01-15T01:47:25.838Z,1.30
2019-01-15T01:49:52.226Z,1.30
2019-01-15T01:52:18.599Z,1.30
2019-01-15T01:54:44.960Z,1.30
2019-01-15T01:57:11.350Z,1.30
2019-01-15T01:59:37.625Z,1.30
2019-01-15T02:02:04.309Z,1.30
2019-01-15T02:04:30.693Z,1.40
2019-01-15T02:06:57.163Z,1.40
2019-01-15T02:09:23.458Z,1.30
2019-01-15T02:11:49.800Z,1.40
2019-01-15T02:14:16.089Z,1.40
2019-01-15T02:16:42.534Z,1.40
2019-01-15T02:19:08.902Z,1.40
2019-01-15T02:21:35.222Z,1.40
2019-01-15T02:24:02.081Z,1.50
2019-01-15T02:26:28.354Z,1.50
2019-01-15T02:28:54.637Z,1.40
2019-01-15T02:31:21.055Z,1.50
2019-01-15T02:33:47.319Z,1.60
2019-01-15T02:36:13.641Z,1.50
2019-01-15T02:38:39.916Z,1.60
2019-01-15T02:41:06.259Z,1.60
2019-01-15T02:43:32.565Z,1.70
2019-01-15T02:45:58.911Z,1.70
2019-01-15T02:48:25.315Z,1.70
2019-01-15T02:50:51.585Z,1.80
2019-01-15T02:53:17.945Z,1.70
2019-01-15T02:55:44.339Z,1.80
2019-01-15T02:58:10.736Z,1.80
2019-01-15T03:00:37.109Z,1.80
2019-01-15T03:03:03.582Z,1.90
2019-01-15T03:05:29.952Z,1.90
2019-01-15T03:07:56.455Z,1.90
2019-01-15T03:10:22.930Z,1.80
2019-01-15T03:12:55.747Z,1.80
2019-01-15T03:15:19.500Z,1.90
2019-01-15T03:17:46.004Z,1.90
2019-01-15T03:20:14.569Z,1.90
2019-01-15T03:22:40.922Z,1.90
2019-01-15T03:25:08.703Z,1.90
2019-01-15T03:27:35.001Z,1.90
2019-01-15T03:30:01.682Z,1.90
2019-01-15T03:32:27.960Z,1.90
2019-01-15T03:34:54.237Z,1.90
2019-01-15T03:37:20.521Z,1.90
2019-01-15T03:39:46.807Z,1.90
2019-01-15T03:42:13.055Z,1.90
2019-01-15T03:44:39.320Z,2.10
2019-01-15T03:47:05.613Z,2.10
2019-01-15T03:49:31.886Z,2.10
2019-01-15T03:51:58.291Z,2.00
2019-01-15T03:54:24.632Z,2.00
2019-01-15T03:56:51.091Z,2.00
2019-01-15T03:59:17.479Z,2.10
2019-01-15T04:01:43.859Z,2.00
2019-01-15T04:04:10.137Z,2.00
2019-01-15T04:06:36.425Z,2.00
2019-01-15T04:09:05.241Z,2.00
2019-01-15T04:11:31.627Z,2.00
2019-01-15T04:13:57.918Z,2.00
2019-01-15T04:16:24.300Z,2.10
2019-01-15T04:18:50.751Z,2.00
2019-01-15T04:21:17.034Z,2.10
2019-01-15T04:23:43.296Z,2.10
2019-01-15T04:26:09.562Z,2.00
2019-01-15T04:28:35.819Z,2.10
2019-01-15T04:31:02.312Z,2.00
2019-01-15T04:33:28.604Z,2.10
2019-01-15T04:35:55.107Z,2.10
2019-01-15T04:38:21.550Z,2.00
2019-01-15T04:40:47.949Z,2.10
2019-01-15T04:43:19.706Z,2.10
2019-01-15T04:45:42.378Z,2.10
2019-01-15T04:48:08.644Z,2.10
2019-01-15T04:50:34.909Z,2.10
2019-01-15T04:53:01.253Z,2.00
2019-01-15T04:55:27.740Z,2.10
2019-01-15T04:57:53.996Z,2.10
2019-01-15T05:00:21.288Z,2.10
2019-01-15T05:02:48.053Z,2.10
2019-01-15T05:05:14.742Z,2.00
2019-01-15T05:07:41.218Z,2.00
2019-01-15T05:10:12.991Z,2.10
2019-01-15T05:12:39.371Z,2.10
2019-01-15T05:15:08.755Z,2.10
2019-01-15T05:17:35.033Z,2.10
2019-01-15T05:20:01.529Z,2.10
2019-01-15T05:22:27.788Z,2.10
2019-01-15T05:24:54.149Z,2.10
2019-01-15T05:27:20.548Z,2.20
2019-01-15T05:29:46.829Z,2.10
2019-01-15T05:32:13.245Z,2.00
2019-01-15T05:34:39.495Z,2.00
2019-01-15T05:37:05.757Z,2.00
2019-01-15T05:39:32.011Z,2.00
2019-01-15T05:41:58.397Z,2.10
2019-01-15T05:44:24.681Z,2.10
2019-01-15T05:46:50.984Z,2.10
2019-01-15T05:49:17.242Z,2.10
2019-01-15T05:51:43.508Z,2.10
2019-01-15T05:54:09.997Z,2.10
2019-01-15T05:56:36.249Z,2.10
2019-01-15T05:59:02.631Z,2.10
2019-01-15T06:01:29.105Z,2.10
2019-01-15T06:03:55.503Z,2.10
2019-01-15T06:06:21.747Z,2.10
2019-01-15T06:08:48.005Z,2.20
2019-01-15T06:11:14.296Z,2.20
2019-01-15T06:13:42.800Z,2.10
2019-01-15T06:16:08.863Z,2.20
2019-01-15T06:18:35.211Z,2.20
2019-01-15T06:21:01.521Z,2.20
2019-01-15T06:23:27.781Z,2.20
2019-01-15T06:25:54.228Z,2.10
2019-01-15T06:28:20.633Z,2.20
2019-01-15T06:30:46.991Z,2.30
2019-01-15T06:33:13.276Z,2.20
2019-01-15T06:35:39.645Z,2.20
2019-01-15T06:38:06.004Z,2.20
2019-01-15T06:40:32.490Z,2.20
2019-01-15T06:42:58.954Z,2.20
2019-01-15T06:45:30.643Z,2.20
2019-01-15T06:47:57.210Z,2.10
2019-01-15T06:50:23.579Z,2.20
2019-01-15T06:52:49.859Z,2.20
2019-01-15T06:55:21.919Z,2.10
2019-01-15T06:57:48.367Z,2.20
2019-01-15T07:00:16.946Z,2.20
2019-01-15T07:02:43.213Z,2.20
2019-01-15T07:05:09.694Z,2.20
2019-01-15T07:07:36.158Z,2.30
2019-01-15T07:10:06.049Z,2.20
2019-01-15T07:12:32.412Z,2.20
2019-01-15T07:14:58.705Z,2.20
2019-01-15T07:17:25.069Z,2.20
2019-01-15T07:19:51.332Z,2.20
2019-01-15T07:22:17.840Z,2.20
2019-01-15T07:24:44.084Z,2.30
2019-01-15T07:27:10.349Z,2.30
2019-01-15T07:29:36.619Z,2.40
2019-01-15T07:32:02.998Z,2.40
2019-01-15T07:34:29.297Z,2.30
2019-01-15T07:36:55.637Z,2.40
2019-01-15T07:39:21.926Z,2.40
2019-01-15T07:41:48.198Z,2.30
2019-01-15T07:44:14.475Z,2.30
2019-01-15T07:46:40.848Z,2.30
2019-01-15T07:49:07.203Z,2.40
2019-01-15T07:51:33.508Z,2.30
2019-01-15T07:53:59.770Z,2.40
2019-01-15T07:56:26.035Z,2.40
2019-01-15T07:58:52.311Z,2.40
2019-01-15T08:01:20.492Z,2.50
2019-01-15T08:03:46.763Z,2.50
2019-01-15T08:06:13.034Z,2.40
2019-01-15T08:08:39.399Z,2.40
2019-01-15T08:11:05.863Z,2.30
2019-01-15T08:13:32.239Z,2.40
2019-01-15T08:15:58.527Z,2.40
2019-01-15T08:18:24.773Z,2.40
2019-01-15T08:20:51.169Z,2.50
2019-01-15T08:23:17.433Z,2.50
2019-01-15T08:25:43.792Z,2.60
2019-01-15T08:28:10.078Z,2.60
2019-01-15T08:30:36.439Z,2.60
2019-01-15T08:33:02.936Z,2.60
2019-01-15T08:35:29.519Z,2.50
2019-01-15T08:37:55.884Z,2.60
2019-01-15T08:40:22.589Z,2.50
2019-01-15T08:42:48.945Z,2.50
2019-01-15T08:45:16.700Z,2.60
2019-01-15T08:47:45.092Z,2.50
2019-01-15T08:50:26.133Z,2.50
2019-01-15T08:52:52.588Z,2.50
2019-01-15T08:55:18.944Z,2.60
2019-01-15T08:57:45.534Z,2.50
2019-01-15T09:00:13.501Z,2.60
2019-01-15T09:02:39.784Z,2.50
2019-01-15T09:05:06.265Z,2.50
2019-01-15T09:07:32.715Z,2.60
2019-01-15T09:09:59.196Z,2.70
2019-01-15T09:12:25.545Z,2.60
2019-01-15T09:14:51.832Z,2.70
2019-01-15T09:17:18.092Z,2.60
2019-01-15T09:19:44.552Z,2.70
2019-01-15T09:22:10.927Z,2.80
2019-01-15T09:24:37.297Z,2.80
2019-01-15T09:27:04.168Z,2.80
2019-01-15T09:29:30.543Z,2.80
2019-01-15T09:31:56.916Z,2.80
2019-01-15T09:34:23.195Z,2.80
2019-01-15T09:36:49.582Z,2.80
2019-01-15T09:39:15.840Z,2.80
2019-01-15T09:41:43.031Z,2.90
2019-01-15T09:44:09.289Z,2.90
2019-01-15T09:46:35.641Z,2.80
2019-01-15T09:49:02.014Z,2.90
2019-01-15T09:51:28.262Z,3.00
2019-01-15T09:53:54.655Z,3.00
2019-01-15T09:56:21.053Z,3.00
2019-01-15T09:58:47.401Z,3.00
2019-01-15T10:01:13.796Z,3.00
2019-01-15T10:03:40.068Z,3.00
2019-01-15T10:06:06.408Z,3.00
2019-01-15T10:08:32.754Z,3.00
2019-01-15T10:10:59.134Z,3.00
2019-01-15T10:13:25.369Z,3.00
2019-01-15T10:15:51.620Z,3.10
2019-01-15T10:18:18.000Z,3.10
2019-01-15T10:20:44.344Z,3.10
2019-01-15T10:23:10.778Z,3.10
2019-01-15T10:25:37.661Z,3.20
2019-01-15T10:28:04.210Z,3.30
2019-01-15T10:30:59.954Z,3.30
2019-01-15T10:33:36.014Z,3.30
2019-01-15T10:36:02.431Z,3.30
2019-01-15T10:38:29.477Z,3.30
2019-01-15T10:40:56.927Z,3.40
2019-01-15T10:43:24.018Z,3.50
2019-01-15T10:45:50.257Z,3.40
2019-01-15T10:48:16.500Z,3.40
2019-01-15T10:50:42.777Z,3.40
2019-01-15T10:53:09.026Z,3.50
2019-01-15T10:55:35.270Z,3.40
2019-01-15T10:58:01.658Z,3.50
2019-01-15T11:00:27.919Z,3.50
2019-01-15T11:02:54.266Z,3.50
2019-01-15T11:05:20.546Z,3.50
2019-01-15T11:07:46.797Z,3.50
2019-01-15T11:10:14.746Z,3.50
2019-01-15T11:12:41.119Z,3.50
2019-01-15T11:15:08.371Z,3.40
2019-01-15T11:17:34.837Z,3.40
2019-01-15T11:20:01.309Z,3.40
2019-01-15T11:22:27.554Z,3.50
2019-01-15T11:24:53.927Z,3.50
2019-01-15T11:27:20.198Z,3.50
2019-01-15T11:29:46.457Z,3.40
2019-01-15T11:32:12.727Z,3.50
2019-01-15T11:34:39.073Z,3.40
2019-01-15T11:37:05.473Z,3.40
2019-01-15T11:39:31.722Z,3.50
2019-01-15T11:41:58.225Z,3.50
2019-01-15T11:44:24.565Z,3.50
2019-01-15T11:46:50.811Z,3.60
2019-01-15T11:49:17.082Z,3.60
2019-01-15T11:51:43.428Z,3.50
2019-01-15T11:54:09.671Z,3.70
2019-01-15T11:56:35.974Z,3.60
2019-01-15T11:59:02.467Z,3.70
2019-01-15T12:01:30.693Z,3.70
2019-01-15T12:04:15.860Z,3.70
2019-01-15T12:06:44.290Z,3.70
2019-01-15T12:09:12.772Z,3.70
2019-01-15T12:11:41.038Z,3.70
2019-01-15T12:14:27.438Z,3.70
2019-01-15T12:16:58.413Z,3.70
2019-01-15T12:19:32.328Z,3.70
2019-01-15T12:22:06.138Z,3.70
2019-01-15T12:24:37.532Z,3.80
2019-01-15T12:27:08.441Z,3.70
2019-01-15T12:29:53.133Z,3.70
2019-01-15T12:32:37.853Z,3.80
2019-01-15T12:35:10.784Z,3.70
2019-01-15T12:37:41.796Z,3.70
2019-01-15T12:40:29.763Z,3.70
2019-01-15T12:43:09.749Z,3.80
2019-01-15T12:45:43.840Z,3.70
2019-01-15T12:48:28.916Z,3.80
2019-01-15T12:50:57.085Z,3.80
2019-01-15T12:53:31.133Z,3.70
2019-01-15T12:56:02.073Z,3.80
2019-01-15T12:58:45.449Z,3.80
2019-01-15T13:01:30.368Z,3.90
2019-01-15T13:04:04.645Z,3.80
2019-01-15T13:06:44.728Z,3.80
2019-01-15T13:09:12.916Z,3.90
2019-01-15T13:11:50.385Z,3.90
2019-01-15T13:14:30.645Z,3.90
2019-01-15T13:17:13.759Z,3.90
2019-01-15T13:19:58.491Z,3.90
2019-01-15T13:22:32.432Z,3.90
2019-01-15T13:25:03.533Z,4.00
2019-01-15T13:27:40.915Z,4.00
2019-01-15T13:30:12.224Z,3.90
2019-01-15T13:32:43.442Z,4.00
2019-01-15T13:35:17.691Z,4.10
2019-01-15T13:37:49.062Z,4.00
2019-01-15T13:40:23.128Z,4.10
2019-01-15T13:42:54.030Z,4.10
2019-01-15T13:45:42.003Z,4.10
2019-01-15T13:48:09.528Z,4.20
2019-01-15T13:50:43.716Z,4.10
2019-01-15T13:53:11.932Z,4.20
2019-01-15T13:55:40.257Z,4.10
2019-01-15T13:58:11.397Z,4.20
2019-01-15T14:00:48.872Z,4.20
2019-01-15T14:03:24.742Z,4.10
2019-01-15T14:05:53.701Z,4.20
2019-01-15T14:08:30.765Z,4.20
2019-01-15T14:11:04.708Z,4.30
2019-01-15T14:13:41.705Z,4.20
2019-01-15T14:16:10.021Z,4.20
2019-01-15T14:18:55.313Z,4.30
2019-01-15T14:21:26.734Z,4.20
2019-01-15T14:23:55.077Z,4.20
2019-01-15T14:26:25.963Z,4.30
2019-01-15T14:29:06.196Z,4.20
2019-01-15T14:31:49.437Z,4.20
2019-01-15T14:34:17.641Z,4.20
2019-01-15T14:36:51.858Z,4.30
2019-01-15T14:39:22.780Z,4.30
2019-01-15T14:41:50.951Z,4.30
2019-01-15T14:44:28.153Z,4.30
2019-01-15T14:47:13.129Z,4.30
2019-01-15T14:49:41.425Z,4.30
2019-01-15T14:52:15.406Z,4.30
2019-01-15T14:54:49.604Z,4.40
2019-01-15T14:57:20.752Z,4.30
2019-01-15T14:59:55.099Z,4.30
2019-01-15T15:02:23.472Z,4.30
2019-01-15T15:04:51.654Z,4.20
2019-01-15T15:07:26.143Z,4.30
2019-01-15T15:09:54.411Z,4.30
2019-01-15T15:12:22.677Z,4.30
2019-01-15T15:14:53.625Z,4.40
2019-01-15T15:17:24.541Z,4.40
2019-01-15T15:19:52.704Z,4.30
2019-01-15T15:22:26.635Z,4.40
2019-01-15T15:24:57.513Z,4.30
2019-01-15T15:27:25.695Z,4.30
2019-01-15T15:30:10.214Z,4.30
2019-01-15T15:32:41.140Z,4.40
2019-01-15T15:35:25.608Z,4.40
2019-01-15T15:37:56.813Z,4.40
2019-01-15T15:40:34.240Z,4.40
2019-01-15T15:43:02.520Z,4.40
2019-01-15T15:45:33.679Z,4.40
2019-01-15T15:48:04.593Z,4.30
2019-01-15T15:50:51.296Z,4.40
2019-01-15T15:53:19.689Z,4.40
2019-01-15T15:56:03.232Z,4.30
2019-01-15T15:58:31.402Z,4.30
2019-01-15T16:01:05.580Z,4.30
2019-01-15T16:03:34.563Z,4.40
2019-01-15T16:06:19.325Z,4.40
2019-01-15T16:08:50.432Z,4.40
2019-01-15T16:11:24.629Z,4.40
2019-01-15T16:13:55.796Z,4.40
2019-01-15T16:16:23.973Z,4.40
2019-01-15T16:19:08.829Z,4.40
2019-01-15T16:21:54.863Z,4.40
2019-01-15T16:24:41.452Z,4.40
2019-01-15T16:27:09.819Z,4.40
2019-01-15T16:29:40.917Z,4.40
2019-01-15T16:32:09.168Z,4.30
2019-01-15T16:34:52.607Z,4.30
2019-01-15T16:37:20.792Z,4.40
2019-01-15T16:40:05.829Z,4.30
2019-01-15T16:42:34.135Z,4.30
2019-01-15T16:45:02.401Z,4.30
2019-01-15T16:47:36.729Z,4.30
2019-01-15T16:50:22.255Z,4.20
2019-01-15T16:53:05.756Z,4.30
2019-01-15T16:55:39.990Z,4.30
2019-01-15T16:58:20.378Z,4.20
2019-01-15T17:01:05.181Z,4.20
2019-01-15T17:03:36.084Z,4.20
2019-01-15T17:06:21.078Z,4.10
2019-01-15T17:08:55.050Z,4.10
2019-01-15T17:11:23.263Z,4.10
2019-01-15T17:13:51.536Z,4.20
2019-01-15T17:16:22.687Z,4.30
2019-01-15T17:19:09.454Z,4.30
2019-01-15T17:21:40.657Z,4.20
2019-01-15T17:24:23.857Z,4.30
2019-01-15T17:27:09.017Z,4.30
2019-01-15T17:29:37.544Z,4.20
2019-01-15T17:32:22.818Z,4.30
2019-01-15T17:34:51.011Z,4.20
2019-01-15T17:37:22.424Z,4.30
2019-01-15T17:39:56.346Z,4.30
2019-01-15T17:42:24.794Z,4.20
2019-01-15T17:45:02.594Z,4.20
2019-01-15T17:47:39.975Z,4.30
2019-01-15T17:50:20.834Z,4.30
2019-01-15T17:52:49.235Z,4.30
2019-01-15T17:55:26.733Z,4.20
2019-01-15T17:58:13.267Z,4.10
2019-01-15T18:00:58.276Z,4.10
2019-01-15T18:03:26.781Z,4.20
2019-01-15T18:06:11.438Z,4.20
2019-01-15T18:08:42.594Z,4.20
2019-01-15T18:11:25.973Z,4.20
2019-01-15T18:13:56.896Z,4.20
2019-01-15T18:16:25.193Z,4.20
2019-01-15T18:18:56.097Z,4.20
2019-01-15T18:21:27.023Z,4.20
2019-01-15T18:24:04.264Z,4.30
2019-01-15T18:26:44.495Z,4.30
2019-01-15T18:29:24.769Z,4.30
2019-01-15T18:32:08.208Z,4.30
2019-01-15T18:34:42.592Z,4.40
2019-01-15T18:37:17.054Z,4.30
2019-01-15T18:39:57.225Z,4.30
2019-01-15T18:42:40.567Z,4.40
2019-01-15T18:45:09.825Z,4.50
2019-01-15T18:47:50.254Z,4.60
2019-01-15T18:50:35.351Z,4.50
2019-01-15T18:53:04.208Z,4.50
2019-01-15T18:55:49.357Z,4.40
2019-01-15T18:58:20.824Z,4.40
2019-01-15T19:00:49.225Z,4.50
2019-01-15T19:03:35.760Z,4.40
2019-01-15T19:06:13.277Z,4.40
2019-01-15T19:08:50.557Z,4.40
2019-01-15T19:11:21.757Z,4.40
2019-01-15T19:14:08.149Z,4.50
2019-01-15T19:16:42.384Z,4.50
2019-01-15T19:19:16.677Z,4.50
2019-01-15T19:21:45.348Z,4.50
2019-01-15T19:24:14.015Z,4.50
2019-01-15T19:26:57.529Z,4.50
2019-01-15T19:29:25.879Z,4.60
2019-01-15T19:32:03.340Z,4.50
2019-01-15T19:34:34.513Z,4.50
2019-01-15T19:37:05.949Z,4.50
2019-01-15T19:39:37.161Z,4.60
2019-01-15T19:42:11.298Z,4.60
2019-01-15T19:44:45.711Z,4.60
2019-01-15T19:47:30.486Z,4.50
2019-01-15T19:50:07.423Z,4.40
2019-01-15T19:52:35.728Z,4.50
2019-01-15T19:55:14.938Z,4.40
2019-01-15T19:57:43.129Z,4.40
2019-01-15T20:00:15.134Z,4.50
2019-01-15T20:02:49.314Z,4.50
2019-01-15T20:05:34.122Z,4.50
2019-01-15T20:08:17.309Z,4.50
2019-01-15T20:10:51.449Z,4.50
2019-01-15T20:13:28.777Z,4.50
2019-01-15T20:15:57.076Z,4.50
2019-01-15T20:18:25.410Z,4.50
2019-01-15T20:20:56.668Z,4.50
2019-01-15T20:23:41.821Z,4.50
2019-01-15T20:26:16.077Z,4.50
2019-01-15T20:28:44.261Z,4.50
2019-01-15T20:31:24.526Z,4.40
2019-01-15T20:34:01.718Z,4.50
2019-01-15T20:36:30.055Z,4.40
2019-01-15T20:39:01.012Z,4.40
2019-01-15T20:41:29.318Z,4.40
2019-01-15T20:44:14.157Z,4.50
2019-01-15T20:46:58.922Z,4.40
2019-01-15T20:49:33.000Z,4.50
2019-01-15T20:52:18.001Z,4.50
2019-01-15T20:54:48.956Z,4.40
2019-01-15T20:57:20.230Z,4.60
2019-01-15T20:59:54.185Z,4.50
2019-01-15T21:02:22.645Z,4.60
2019-01-15T21:05:00.260Z,4.60
2019-01-15T21:07:37.456Z,4.60
2019-01-15T21:10:31.734Z,4.70
2019-01-15T21:12:55.868Z,4.60
2019-01-15T21:15:29.871Z,4.50
2019-01-15T21:18:13.097Z,4.60
2019-01-15T21:20:41.354Z,4.60
2019-01-15T21:23:09.569Z,4.60
2019-01-15T21:25:49.874Z,4.60
2019-01-15T21:28:18.083Z,4.60
2019-01-15T21:30:52.312Z,4.60
2019-01-15T21:33:20.592Z,4.60
2019-01-15T21:35:51.520Z,4.50
2019-01-15T21:38:28.594Z,4.60
2019-01-15T21:40:59.780Z,4.60
2019-01-15T21:43:27.981Z,4.60
2019-01-15T21:46:05.389Z,4.60
2019-01-15T21:48:48.905Z,4.60
2019-01-15T21:51:23.160Z,4.60
2019-01-15T21:53:56.940Z,4.50
2019-01-15T21:56:40.172Z,4.60
2019-01-15T21:59:08.449Z,4.60
2019-01-15T22:01:36.659Z,4.60
2019-01-15T22:04:05.121Z,4.70
2019-01-15T22:06:36.381Z,4.70
2019-01-15T22:09:16.583Z,4.60
2019-01-15T22:11:44.790Z,4.70
2019-01-15T22:14:13.092Z,4.70
2019-01-15T22:16:53.544Z,4.70
2019-01-15T22:19:31.080Z,4.70
2019-01-15T22:22:15.827Z,4.80
2019-01-15T22:24:49.855Z,4.70
2019-01-15T22:27:30.354Z,4.80
2019-01-15T22:29:58.627Z,4.70
2019-01-15T22:32:26.829Z,4.70
2019-01-15T22:35:11.499Z,4.80
2019-01-15T22:37:39.944Z,4.80
2019-01-15T22:40:15.840Z,4.70
2019-01-15T22:42:50.239Z,4.70
2019-01-15T22:45:18.670Z,4.80
2019-01-15T22:47:55.063Z,4.80
2019-01-15T22:50:22.983Z,4.70
2019-01-15T22:52:53.913Z,4.70
2019-01-15T22:55:28.146Z,4.60
2019-01-15T22:58:02.384Z,4.70
2019-01-15T23:00:53.282Z,4.70
2019-01-15T23:03:24.465Z,4.70
2019-01-15T23:05:55.405Z,4.60
2019-01-15T23:08:23.813Z,4.60
2019-01-15T23:10:54.973Z,4.70
2019-01-15T23:13:23.249Z,4.70
2019-01-15T23:15:57.732Z,4.60
2019-01-15T23:18:25.915Z,4.60
2019-01-15T23:21:00.211Z,4.70
2019-01-15T23:23:37.191Z,4.70
2019-01-15T23:26:22.301Z,4.70
2019-01-15T23:28:56.477Z,4.70
2019-01-15T23:31:30.832Z,4.70
2019-01-15T23:34:11.250Z,4.70
2019-01-15T23:36:42.268Z,4.80
2019-01-15T23:39:13.804Z,4.70
2019-01-15T23:41:42.008Z,4.70
2019-01-15T23:44:10.219Z,4.70
2019-01-15T23:46:50.520Z,4.70
2019-01-15T23:49:21.709Z,4.70
2019-01-15T23:51:49.979Z,4.70
2019-01-15T23:54:36.341Z,4.60
2019-01-15T23:57:21.076Z,4.60
2019-01-15T23:59:52.003Z,4.60
